createdAt,value
2022-12-20T00:00:14.993Z,3.299
2022-12-20T00:01:13.890Z,3.200
2022-12-20T00:03:13.835Z,3
2022-12-20T00:04:13.551Z,2.900
2022-12-20T00:05:13.705Z,3.200
2022-12-20T00:06:13.115Z,2.900
2022-12-20T00:07:13.711Z,3.200
2022-12-20T00:09:12.475Z,2.900
2022-12-20T00:11:13.997Z,2.900
2022-12-20T00:12:13.768Z,3.200
2022-12-20T00:13:13.379Z,3
2022-12-20T00:15:13.949Z,3.099
2022-12-20T00:16:13.346Z,3.299
2022-12-20T00:17:13.966Z,2.900
2022-12-20T00:18:13.464Z,3.099
2022-12-20T00:19:13.908Z,3
2022-12-20T00:20:13.506Z,3.200
2022-12-20T00:21:14.049Z,3.299
2022-12-20T00:22:13.572Z,3.099
2022-12-20T00:23:13.483Z,3.400
2022-12-20T00:24:14.432Z,3.700
2022-12-20T00:25:13.805Z,3.5
2022-12-20T00:31:27.490Z,3.700
2022-12-20T00:32:13.973Z,3.5
2022-12-20T00:33:15.150Z,3.599
2022-12-20T00:34:15.096Z,3.5
2022-12-20T00:35:14.830Z,3.599
2022-12-20T00:36:14.381Z,3.5
2022-12-20T00:39:15.014Z,3.700
2022-12-20T00:41:15.706Z,3.900
2022-12-20T00:42:14.964Z,3.700
2022-12-20T00:43:14.473Z,4
2022-12-20T00:44:15.308Z,3.400
2022-12-20T00:45:15.089Z,3.5
2022-12-20T00:46:14.313Z,3.700
2022-12-20T00:47:13.132Z,3.900
2022-12-20T00:48:14.721Z,3.799
2022-12-20T00:49:15.713Z,3.700
2022-12-20T00:50:15.076Z,3.799
2022-12-20T00:51:14.062Z,3.5
2022-12-20T00:53:14.726Z,3.599
2022-12-20T00:54:15.067Z,3.700
2022-12-20T00:56:14.635Z,3.5
2022-12-20T00:57:15.120Z,3.299
2022-12-20T00:58:15.139Z,3.5
2022-12-20T01:00:16.556Z,3.400
2022-12-20T01:01:17.580Z,3.700
2022-12-20T01:02:14.853Z,3.5
2022-12-20T01:03:14.924Z,3.299
2022-12-20T01:04:14.479Z,3.400
2022-12-20T01:05:15.493Z,3.200
2022-12-20T01:06:15.126Z,3.599
2022-12-20T01:07:15.859Z,3.099
2022-12-20T01:08:15.174Z,3.299
2022-12-20T01:09:14.281Z,3.700
2022-12-20T01:10:14.967Z,3.299
2022-12-20T01:11:15.241Z,3.799
2022-12-20T01:12:14.268Z,3.299
2022-12-20T01:13:14.390Z,3.400
2022-12-20T01:14:14.422Z,3.200
2022-12-20T01:15:14.654Z,3.299
2022-12-20T01:16:15.169Z,3.200
2022-12-20T01:17:14.135Z,3.099
2022-12-20T01:18:14.363Z,3.299
2022-12-20T01:19:14.388Z,3.5
2022-12-20T01:20:15.128Z,3.400
2022-12-20T01:21:14.176Z,3.5
2022-12-20T01:22:13.985Z,3.299
2022-12-20T01:23:13.734Z,3.200
2022-12-20T01:24:14.802Z,3.099
2022-12-20T01:25:14.703Z,3.299
2022-12-20T01:26:14.213Z,2.900
2022-12-20T01:27:14.721Z,3.099
2022-12-20T01:28:14.036Z,3
2022-12-20T01:29:14.610Z,3.400
2022-12-20T01:30:14.329Z,3.200
2022-12-20T01:31:13.954Z,3.099
2022-12-20T01:32:14.290Z,3.200
2022-12-20T01:33:14.073Z,3
2022-12-20T01:34:13.956Z,3.299
2022-12-20T01:35:14.170Z,2.900
2022-12-20T01:36:13.912Z,3.200
2022-12-20T01:38:13.945Z,2.799
2022-12-20T01:39:14.143Z,2.900
2022-12-20T01:40:14.031Z,3
2022-12-20T01:41:13.964Z,3.099
2022-12-20T01:42:13.624Z,3
2022-12-20T01:43:13.494Z,2.900
2022-12-20T01:44:14.385Z,3.099
2022-12-20T01:45:14.505Z,2.799
2022-12-20T01:47:13.214Z,2.900
2022-12-20T01:49:13.534Z,3
2022-12-20T01:50:14.653Z,3.099
2022-12-20T01:51:14.334Z,3.200
2022-12-20T01:52:14.023Z,3.099
2022-12-20T01:53:13.491Z,2.900
2022-12-20T01:54:14.025Z,3
2022-12-20T01:55:13.993Z,3.099
2022-12-20T01:57:14.464Z,3
2022-12-20T01:59:13.659Z,3.099
2022-12-20T02:01:14.271Z,3
2022-12-20T02:02:13.842Z,2.799
2022-12-20T02:03:14.259Z,3.200
2022-12-20T02:04:14.387Z,2.599
2022-12-20T02:05:13.613Z,2.700
2022-12-20T02:06:14.361Z,3
2022-12-20T02:07:14.124Z,2.700
2022-12-20T02:08:13.624Z,3
2022-12-20T02:09:13.127Z,2.700
2022-12-20T02:12:13.614Z,3
2022-12-20T02:13:13.549Z,2.900
2022-12-20T02:14:13.639Z,3
2022-12-20T02:15:14.728Z,2.799
2022-12-20T02:17:14.711Z,2.900
2022-12-20T02:18:13.615Z,3
2022-12-20T02:19:13.480Z,2.5
2022-12-20T02:20:14.313Z,2.799
2022-12-20T02:22:13.857Z,3.099
2022-12-20T02:23:13.780Z,2.599
2022-12-20T02:24:13.550Z,2.700
2022-12-20T02:25:14.095Z,2.5
2022-12-20T02:26:13.520Z,3.5
2022-12-20T02:27:14.509Z,3
2022-12-20T02:28:14.089Z,2.799
2022-12-20T02:29:13.678Z,2.700
2022-12-20T02:31:14.196Z,3.099
2022-12-20T02:32:14.799Z,3
2022-12-20T02:33:14.103Z,2.700
2022-12-20T02:38:19.672Z,2.799
2022-12-20T02:39:13.983Z,2.900
2022-12-20T02:40:14.134Z,2.599
2022-12-20T02:41:14.238Z,2.700
2022-12-20T02:42:13.686Z,2.900
2022-12-20T02:43:13.958Z,2.599
2022-12-20T02:44:13.920Z,2.900
2022-12-20T02:45:14.105Z,2.799
2022-12-20T02:51:14.106Z,2.900
2022-12-20T02:52:14.213Z,3.299
2022-12-20T02:53:13.911Z,2.799
2022-12-20T02:56:14.058Z,2.900
2022-12-20T02:57:14.120Z,3
2022-12-20T02:58:13.776Z,2.900
2022-12-20T02:59:14.361Z,3
2022-12-20T03:00:14.982Z,2.599
2022-12-20T03:02:13.795Z,2.700
2022-12-20T03:03:13.793Z,2.900
2022-12-20T03:06:13.429Z,2.799
2022-12-20T03:07:14.309Z,2.700
2022-12-20T03:08:13.488Z,2.599
2022-12-20T03:09:14.178Z,2.799
2022-12-20T03:10:13.694Z,3.099
2022-12-20T03:11:13.315Z,2.900
2022-12-20T03:12:13.889Z,2.700
2022-12-20T03:13:13.476Z,2.900
2022-12-20T03:15:13.850Z,2.700
2022-12-20T03:16:13.681Z,2.5
2022-12-20T03:17:13.794Z,2.400
2022-12-20T03:18:13.240Z,2.900
2022-12-20T03:20:14.442Z,2.5
2022-12-20T03:21:14.331Z,2.700
2022-12-20T03:22:14.036Z,2.400
2022-12-20T03:23:13.710Z,2.599
2022-12-20T03:25:14.027Z,2.799
2022-12-20T03:26:13.407Z,2.700
2022-12-20T03:29:14.235Z,2.5
2022-12-20T03:30:14.365Z,2.599
2022-12-20T03:31:14.401Z,2.5
2022-12-20T03:32:14.572Z,2.599
2022-12-20T03:34:14.043Z,2.5
2022-12-20T03:36:13.474Z,2.599
2022-12-20T03:37:14.317Z,2.799
2022-12-20T03:38:13.980Z,2.5
2022-12-20T03:39:13.982Z,2.700
2022-12-20T03:40:14.048Z,2.799
2022-12-20T03:41:13.900Z,2.599
2022-12-20T03:42:13.619Z,2.5
2022-12-20T03:44:14.455Z,3
2022-12-20T03:45:13.500Z,2.599
2022-12-20T03:46:14.335Z,2.799
2022-12-20T03:47:14.160Z,2.599
2022-12-20T03:48:13.905Z,2.5
2022-12-20T03:49:13.618Z,2.700
2022-12-20T03:50:13.642Z,2.900
2022-12-20T03:51:13.342Z,2.5
2022-12-20T03:52:14.342Z,2.599
2022-12-20T03:53:14.250Z,2.5
2022-12-20T03:54:14.163Z,2.900
2022-12-20T03:55:13.983Z,2.799
2022-12-20T03:57:13.532Z,2.400
2022-12-20T03:58:14.225Z,2.599
2022-12-20T04:01:14.559Z,2.299
2022-12-20T04:02:13.757Z,2.5
2022-12-20T04:03:13.965Z,2.700
2022-12-20T04:04:14.024Z,2.599
2022-12-20T04:06:14.540Z,2.700
2022-12-20T04:08:14.091Z,2.799
2022-12-20T04:09:13.993Z,2.599
2022-12-20T04:10:14.183Z,2.5
2022-12-20T04:11:13.788Z,2.700
2022-12-20T04:12:13.651Z,2.5
2022-12-20T04:13:13.272Z,2.700
2022-12-20T04:14:14.039Z,2.599
2022-12-20T04:15:14.232Z,2.5
2022-12-20T04:16:13.909Z,3
2022-12-20T04:17:13.791Z,2.400
2022-12-20T04:20:13.872Z,2.700
2022-12-20T04:21:13.803Z,2.599
2022-12-20T04:22:13.679Z,2.700
2022-12-20T04:24:13.921Z,2.400
2022-12-20T04:25:14.347Z,2.799
2022-12-20T04:26:13.987Z,2.700
2022-12-20T04:27:13.849Z,2.799
2022-12-20T04:28:13.143Z,2.5
2022-12-20T04:30:14.310Z,2.599
2022-12-20T04:32:13.477Z,2.299
2022-12-20T04:33:13.975Z,2.400
2022-12-20T04:34:13.730Z,2.200
2022-12-20T04:35:13.821Z,2.400
2022-12-20T04:37:13.111Z,2.5
2022-12-20T04:38:14.244Z,2.200
2022-12-20T04:39:14.210Z,2.400
2022-12-20T04:40:14.244Z,2.200
2022-12-20T04:41:14.029Z,2.400
2022-12-20T04:42:14.532Z,2.5
2022-12-20T04:44:14.836Z,2.299
2022-12-20T04:46:13.864Z,2.400
2022-12-20T04:50:13.658Z,2.700
2022-12-20T04:51:13.421Z,2.5
2022-12-20T04:52:14.309Z,2.200
2022-12-20T04:53:13.985Z,2.599
2022-12-20T04:54:13.942Z,2.299
2022-12-20T04:55:14.105Z,2.5
2022-12-20T04:56:13.589Z,2.400
2022-12-20T04:57:13.407Z,2.599
2022-12-20T04:58:13.802Z,2.5
2022-12-20T04:59:13.580Z,2.299
2022-12-20T05:01:19.642Z,2.200
2022-12-20T05:02:13.457Z,2.400
2022-12-20T05:03:14.003Z,2.599
2022-12-20T05:04:14.291Z,2.400
2022-12-20T05:06:14.416Z,2.5
2022-12-20T05:07:13.686Z,2.299
2022-12-20T05:08:13.474Z,2.200
2022-12-20T05:09:13.559Z,2.400
2022-12-20T05:10:14.508Z,2.5
2022-12-20T05:11:14.222Z,2.599
2022-12-20T05:12:13.844Z,2.400
2022-12-20T05:13:13.356Z,2.599
2022-12-20T05:14:14.288Z,2.400
2022-12-20T05:15:15.219Z,2.700
2022-12-20T05:16:14.300Z,2.5
2022-12-20T05:17:28.611Z,2.099
2022-12-20T05:18:13.601Z,2.299
2022-12-20T05:21:14.548Z,2.5
2022-12-20T05:23:13.579Z,2.599
2022-12-20T05:24:14.576Z,2.400
2022-12-20T05:26:13.817Z,2.299
2022-12-20T05:27:14.044Z,2.400
2022-12-20T05:28:13.838Z,2.599
2022-12-20T05:29:13.658Z,2.5
2022-12-20T05:30:13.895Z,2.299
2022-12-20T05:31:13.846Z,2.5
2022-12-20T05:33:13.788Z,2.099
2022-12-20T05:34:13.638Z,2.299
2022-12-20T05:35:13.760Z,2.200
2022-12-20T05:37:14.226Z,2.5
2022-12-20T05:38:14.032Z,2.200
2022-12-20T05:40:13.875Z,2.299
2022-12-20T05:41:13.606Z,2.700
2022-12-20T05:42:14.587Z,2.200
2022-12-20T05:43:14.362Z,2.299
2022-12-20T05:44:14.506Z,2.5
2022-12-20T05:46:14.496Z,2.400
2022-12-20T05:47:13.892Z,2.5
2022-12-20T05:48:13.830Z,2.400
2022-12-20T05:49:13.613Z,2.299
2022-12-20T05:50:18.488Z,2.5
2022-12-20T05:51:14.310Z,2.200
2022-12-20T05:52:14.499Z,2.299
2022-12-20T05:53:14.060Z,2.400
2022-12-20T05:54:13.928Z,2.5
2022-12-20T05:56:13.984Z,2.200
2022-12-20T05:57:14.178Z,2.5
2022-12-20T05:58:13.987Z,2.400
2022-12-20T05:59:14.084Z,2.700
2022-12-20T06:00:15.014Z,2.400
2022-12-20T06:01:14.572Z,2.299
2022-12-20T06:03:14.205Z,2.5
2022-12-20T06:04:14.560Z,2.400
2022-12-20T06:05:13.935Z,2.5
2022-12-20T06:07:14.516Z,2.599
2022-12-20T06:08:14.067Z,2.700
2022-12-20T06:09:13.770Z,2.5
2022-12-20T06:11:13.938Z,2.599
2022-12-20T06:12:14.586Z,2.5
2022-12-20T06:15:14.110Z,2.299
2022-12-20T06:16:14.101Z,2.400
2022-12-20T06:18:14.124Z,2.5
2022-12-20T06:19:19.408Z,2.400
2022-12-20T06:20:14.788Z,2.599
2022-12-20T06:21:14.174Z,2.5
2022-12-20T06:22:14.001Z,2.299
2022-12-20T06:23:14.163Z,2.400
2022-12-20T06:24:14.477Z,2.099
2022-12-20T06:25:14.765Z,2.200
2022-12-20T06:26:13.961Z,2.299
2022-12-20T06:27:14.271Z,2.400
2022-12-20T06:28:13.998Z,2.5
2022-12-20T06:29:14.211Z,2
2022-12-20T06:30:15.155Z,2.299
2022-12-20T06:31:14.575Z,2.200
2022-12-20T06:32:13.682Z,2.400
2022-12-20T06:33:13.786Z,2.200
2022-12-20T06:34:13.973Z,2.400
2022-12-20T06:35:14.013Z,2.200
2022-12-20T06:36:13.875Z,2.299
2022-12-20T06:38:14.307Z,2.099
2022-12-20T06:39:14.408Z,2.400
2022-12-20T06:40:14.456Z,2.099
2022-12-20T06:43:13.499Z,2.299
2022-12-20T06:44:13.536Z,2.099
2022-12-20T06:45:13.696Z,2.299
2022-12-20T06:47:13.452Z,2.599
2022-12-20T06:48:13.581Z,2.200
2022-12-20T06:49:14.332Z,2.299
2022-12-20T06:50:14.560Z,2.099
2022-12-20T06:52:14.645Z,2.200
2022-12-20T06:53:14.563Z,2.400
2022-12-20T06:54:14.583Z,2.299
2022-12-20T06:55:13.852Z,2.200
2022-12-20T06:56:13.607Z,2.099
2022-12-20T06:57:14.360Z,2.400
2022-12-20T06:58:13.938Z,2.099
2022-12-20T07:00:14.392Z,2.299
2022-12-20T07:01:15.364Z,2
2022-12-20T07:02:13.856Z,2.099
2022-12-20T07:03:13.960Z,2.200
2022-12-20T07:04:14.602Z,2.099
2022-12-20T07:06:14.353Z,2
2022-12-20T07:09:14.152Z,1.899
2022-12-20T07:10:14.022Z,2
2022-12-20T07:11:13.820Z,2.099
2022-12-20T07:12:13.907Z,2
2022-12-20T07:16:14.481Z,1.799
2022-12-20T07:17:13.692Z,2.099
2022-12-20T07:18:14.454Z,2.200
2022-12-20T07:19:14.854Z,2.099
2022-12-20T07:20:14.849Z,2.299
2022-12-20T07:21:14.418Z,2.400
2022-12-20T07:22:14.551Z,2.200
2022-12-20T07:23:14.332Z,2.5
2022-12-20T07:24:14.445Z,2.299
2022-12-20T07:25:13.752Z,2.5
2022-12-20T07:26:13.551Z,2.599
2022-12-20T07:27:13.832Z,2.5
2022-12-20T07:29:15.828Z,2.299
2022-12-20T07:31:14.170Z,2.200
2022-12-20T07:33:13.808Z,2.099
2022-12-20T07:34:13.738Z,2.299
2022-12-20T07:35:14.122Z,2
2022-12-20T07:36:14.150Z,2.400
2022-12-20T07:37:14.027Z,2
2022-12-20T07:38:14.137Z,2.200
2022-12-20T07:39:14.288Z,2
2022-12-20T07:40:14.641Z,1.899
2022-12-20T07:41:13.510Z,2
2022-12-20T07:43:14.244Z,2.099
2022-12-20T07:44:14.272Z,2
2022-12-20T07:45:14.542Z,2.200
2022-12-20T07:46:14.625Z,2
2022-12-20T07:47:13.722Z,2.099
2022-12-20T07:48:19.664Z,1.799
2022-12-20T07:49:13.560Z,1.899
2022-12-20T07:50:13.596Z,2
2022-12-20T07:52:14.104Z,1.799
2022-12-20T07:53:14.299Z,1.899
2022-12-20T07:54:14.294Z,2
2022-12-20T07:55:14.753Z,1.799
2022-12-20T07:56:13.373Z,2.099
2022-12-20T07:57:14.312Z,2
2022-12-20T07:58:14.451Z,1.899
2022-12-20T07:59:13.898Z,2.099
2022-12-20T08:00:15.071Z,1.899
2022-12-20T08:01:14.350Z,2
2022-12-20T08:02:13.815Z,1.700
2022-12-20T08:03:14.844Z,1.899
2022-12-20T08:04:14.160Z,2.099
2022-12-20T08:05:14.435Z,1.899
2022-12-20T08:06:14.501Z,2
2022-12-20T08:08:13.935Z,1.700
2022-12-20T08:09:13.695Z,2.099
2022-12-20T08:10:13.778Z,1.899
2022-12-20T08:12:36.118Z,2
2022-12-20T08:13:13.895Z,1.899
2022-12-20T08:14:36.075Z,2
2022-12-20T08:15:14.010Z,1.799
2022-12-20T08:16:13.804Z,2.099
2022-12-20T08:17:14.305Z,2
2022-12-20T08:19:13.846Z,1.899
2022-12-20T08:20:14.189Z,2.200
2022-12-20T08:21:14.151Z,2
2022-12-20T08:22:14.400Z,1.899
2022-12-20T08:23:14.258Z,2.099
2022-12-20T08:24:14.629Z,1.899
2022-12-20T08:26:14.461Z,2.099
2022-12-20T08:27:13.632Z,1.899
2022-12-20T08:29:13.900Z,2.099
2022-12-20T08:30:14.434Z,2
2022-12-20T08:31:13.955Z,1.899
2022-12-20T08:32:14.560Z,2
2022-12-20T08:33:13.456Z,1.700
2022-12-20T08:34:14.243Z,2
2022-12-20T08:35:14.574Z,1.899
2022-12-20T08:36:14.496Z,1.799
2022-12-20T08:38:14.614Z,2.099
2022-12-20T08:39:13.548Z,1.799
2022-12-20T08:40:14.182Z,1.700
2022-12-20T08:41:14.253Z,1.799
2022-12-20T08:43:13.982Z,1.899
2022-12-20T08:44:13.971Z,1.700
2022-12-20T08:46:14.026Z,1.799
2022-12-20T08:47:14.235Z,1.700
2022-12-20T08:48:14.328Z,2
2022-12-20T08:49:14.341Z,1.799
2022-12-20T08:51:14.487Z,1.899
2022-12-20T08:52:13.744Z,2
2022-12-20T08:53:14.429Z,1.799
2022-12-20T08:54:14.469Z,1.700
2022-12-20T08:55:13.526Z,1.600
2022-12-20T08:56:14.539Z,1.799
2022-12-20T08:58:13.696Z,1.899
2022-12-20T08:59:13.743Z,1.600
2022-12-20T09:01:14.383Z,1.799
2022-12-20T09:03:14.470Z,2
2022-12-20T09:04:13.760Z,1.700
2022-12-20T09:05:14.072Z,1.799
2022-12-20T09:06:14.246Z,1.5
2022-12-20T09:09:13.557Z,1.600
2022-12-20T09:10:14.525Z,1.700
2022-12-20T09:11:13.596Z,1.600
2022-12-20T09:12:13.809Z,1.799
2022-12-20T09:14:14.372Z,1.600
2022-12-20T09:16:14.451Z,1.700
2022-12-20T09:17:13.779Z,1.600
2022-12-20T09:18:13.819Z,1.700
2022-12-20T09:19:13.743Z,1.600
2022-12-20T09:20:14.102Z,1.799
2022-12-20T09:21:14.353Z,1.700
2022-12-20T09:23:14.252Z,1.600
2022-12-20T09:24:14.260Z,1.899
2022-12-20T09:25:14.479Z,1.600
2022-12-20T09:26:13.637Z,1.799
2022-12-20T09:28:14.128Z,1.5
2022-12-20T09:29:18.133Z,1.600
2022-12-20T09:30:14.791Z,1.700
2022-12-20T09:31:14.122Z,1.600
2022-12-20T09:32:14.545Z,1.899
2022-12-20T09:33:14.114Z,1.799
2022-12-20T09:34:14.401Z,1.5
2022-12-20T09:35:21.040Z,1.600
2022-12-20T09:37:13.572Z,1.5
2022-12-20T09:38:14.447Z,1.299
2022-12-20T09:39:14.522Z,1.5
2022-12-20T09:40:13.983Z,1.600
2022-12-20T09:42:14.525Z,1.399
2022-12-20T09:43:13.916Z,1.700
2022-12-20T09:44:13.890Z,1.5
2022-12-20T09:46:13.786Z,1.600
2022-12-20T09:47:14.297Z,1.700
2022-12-20T09:48:14.809Z,1.600
2022-12-20T09:49:18.622Z,1.399
2022-12-20T09:50:14.697Z,1.700
2022-12-20T09:51:14.179Z,1.399
2022-12-20T09:52:14.569Z,1.5
2022-12-20T09:53:18.168Z,1.700
2022-12-20T09:54:14.864Z,1.5
2022-12-20T09:55:14.187Z,1.600
2022-12-20T09:56:14.487Z,1.5
2022-12-20T09:57:13.743Z,1.700
2022-12-20T09:58:13.968Z,1.399
2022-12-20T10:00:15.334Z,1.5
2022-12-20T10:01:15.473Z,1.600
2022-12-20T10:02:53.872Z,1.5
2022-12-20T10:03:21.795Z,1.399
2022-12-20T10:04:14.750Z,1.299
2022-12-20T10:05:22.852Z,1.5
2022-12-20T10:06:14.520Z,1.399
2022-12-20T10:07:13.734Z,1.5
2022-12-20T10:08:13.816Z,1.299
2022-12-20T10:09:27.994Z,1.399
2022-12-20T10:10:13.571Z,1.600
2022-12-20T10:11:13.977Z,1.399
2022-12-20T10:12:14.437Z,1.299
2022-12-20T10:13:13.696Z,1.5
2022-12-20T10:14:13.755Z,1.299
2022-12-20T10:15:14.299Z,1.200
2022-12-20T10:16:14.317Z,1.299
2022-12-20T10:17:13.946Z,1.5
2022-12-20T10:18:14.775Z,1.600
2022-12-20T10:19:14.146Z,1.5
2022-12-20T10:20:15.186Z,1.399
2022-12-20T10:21:14.157Z,1.5
2022-12-20T10:23:14.035Z,1.299
2022-12-20T10:24:13.797Z,1.5
2022-12-20T10:26:13.483Z,1.399
2022-12-20T10:27:14.369Z,1.600
2022-12-20T10:29:13.938Z,1.299
2022-12-20T10:30:14.524Z,1.5
2022-12-20T10:32:14.874Z,1.299
2022-12-20T10:33:14.192Z,1.399
2022-12-20T10:34:14.456Z,1.5
2022-12-20T10:36:13.814Z,1.299
2022-12-20T10:37:13.944Z,1.399
2022-12-20T10:39:13.772Z,1.700
2022-12-20T10:40:13.956Z,1.600
2022-12-20T10:41:23.039Z,1.100
2022-12-20T10:42:14.817Z,1.399
2022-12-20T10:43:13.895Z,1.600
2022-12-20T10:44:14.224Z,1.399
2022-12-20T10:45:14.708Z,1.5
2022-12-20T10:46:13.817Z,1.299
2022-12-20T10:47:13.965Z,1.399
2022-12-20T10:48:14.253Z,1.5
2022-12-20T10:49:14.154Z,1.299
2022-12-20T10:50:14.309Z,1.399
2022-12-20T10:51:16.609Z,1.5
2022-12-20T10:52:13.739Z,1.299
2022-12-20T10:53:14.092Z,1.600
2022-12-20T10:54:13.971Z,1.299
2022-12-20T10:55:14.049Z,1.600
2022-12-20T10:56:13.884Z,1.5
2022-12-20T10:57:15.031Z,1.299
2022-12-20T10:58:13.893Z,1.5
2022-12-20T10:59:13.798Z,1.600
2022-12-20T11:00:14.765Z,1.399
2022-12-20T11:01:14.328Z,1.299
2022-12-20T11:02:13.525Z,1.399
2022-12-20T11:03:14.221Z,1.5
2022-12-20T11:05:14.050Z,1.399
2022-12-20T11:06:14.350Z,1.600
2022-12-20T11:07:14.581Z,1.5
2022-12-20T11:08:36.126Z,1.200
2022-12-20T11:09:14.327Z,1.399
2022-12-20T11:11:13.788Z,1.5
2022-12-20T11:12:13.665Z,1.299
2022-12-20T11:13:13.721Z,1.399
2022-12-20T11:14:13.801Z,1.299
2022-12-20T11:15:13.568Z,1.399
2022-12-20T11:16:14.470Z,1.600
2022-12-20T11:17:13.833Z,1.299
2022-12-20T11:18:14.013Z,1.399
2022-12-20T11:22:14.215Z,1.5
2022-12-20T11:23:14.376Z,1.700
2022-12-20T11:25:14.370Z,1.399
2022-12-20T11:26:14.048Z,1.600
2022-12-20T11:27:15.888Z,1.299
2022-12-20T11:28:14.141Z,1.399
2022-12-20T11:29:14.123Z,1.200
2022-12-20T11:30:14.186Z,1.5
2022-12-20T11:32:13.714Z,1.600
2022-12-20T11:33:13.857Z,1.399
2022-12-20T11:34:13.778Z,1.299
2022-12-20T11:36:13.935Z,1.399
2022-12-20T11:37:13.983Z,1.700
2022-12-20T11:38:13.867Z,1.399
2022-12-20T11:39:14.611Z,1.200
2022-12-20T11:40:14.036Z,1.600
2022-12-20T11:41:14.032Z,1.200
2022-12-20T11:42:14.177Z,1.5
2022-12-20T11:43:13.934Z,1.299
2022-12-20T11:44:26.957Z,1.399
2022-12-20T11:46:14.055Z,1.5
2022-12-20T11:47:14.698Z,1.200
2022-12-20T11:48:13.892Z,1.399
2022-12-20T11:50:13.942Z,1.600
2022-12-20T11:51:16.759Z,1.200
2022-12-20T11:52:14.596Z,1.299
2022-12-20T11:53:13.511Z,1.399
2022-12-20T11:54:14.613Z,1.299
2022-12-20T11:55:13.614Z,1.399
2022-12-20T11:56:13.542Z,1.200
2022-12-20T11:57:13.667Z,1.399
2022-12-20T11:59:14.257Z,1.299
2022-12-20T12:01:14.444Z,1.5
2022-12-20T12:02:13.870Z,1.299
2022-12-20T12:03:14.490Z,1.5
2022-12-20T12:05:14.466Z,1.399
2022-12-20T12:06:13.525Z,1.299
2022-12-20T12:08:17.962Z,1.600
2022-12-20T12:09:14.323Z,1.399
2022-12-20T12:10:14.136Z,1.299
2022-12-20T12:11:39.702Z,1.399
2022-12-20T12:12:18.712Z,1.200
2022-12-20T12:13:13.781Z,1.299
2022-12-20T12:14:13.717Z,1.200
2022-12-20T12:15:16.238Z,1.5
2022-12-20T12:16:18.763Z,1.200
2022-12-20T12:17:13.710Z,1.5
2022-12-20T12:18:18.569Z,1.700
2022-12-20T12:19:14.199Z,1.299
2022-12-20T12:21:14.469Z,1.200
2022-12-20T12:22:14.227Z,1.299
2022-12-20T12:23:14.231Z,1.5
2022-12-20T12:24:13.989Z,1.399
2022-12-20T12:25:14.566Z,1.299
2022-12-20T12:26:14.584Z,1.200
2022-12-20T12:27:16.248Z,1.399
2022-12-20T12:29:14.306Z,1.299
2022-12-20T12:30:14.278Z,1.5
2022-12-20T12:31:14.466Z,1.299
2022-12-20T12:32:13.857Z,1.399
2022-12-20T12:33:16.546Z,1.299
2022-12-20T12:35:14.353Z,1.5
2022-12-20T12:36:13.992Z,1.200
2022-12-20T12:37:13.994Z,1.299
2022-12-20T12:39:13.822Z,1
2022-12-20T12:40:14.094Z,1.399
2022-12-20T12:43:13.641Z,1.299
2022-12-20T12:44:13.845Z,1.200
2022-12-20T12:45:14.266Z,1.399
2022-12-20T12:46:14.852Z,1.200
2022-12-20T12:47:13.826Z,1.299
2022-12-20T12:49:13.564Z,1.399
2022-12-20T12:51:13.377Z,1.5
2022-12-20T12:52:14.276Z,1.600
2022-12-20T12:54:13.506Z,1.799
2022-12-20T12:55:13.718Z,2.099
2022-12-20T12:56:42.198Z,1.799
2022-12-20T12:57:14.287Z,1.899
2022-12-20T12:58:13.818Z,1.799
2022-12-20T12:59:13.557Z,2
2022-12-20T13:00:14.180Z,1.899
2022-12-20T13:01:14.487Z,1.5
2022-12-20T13:02:14.747Z,1.399
2022-12-20T13:04:14.202Z,1.299
2022-12-20T13:05:14.169Z,1.399
2022-12-20T13:06:13.898Z,1.5
2022-12-20T13:08:13.650Z,1.299
2022-12-20T13:09:14.304Z,1.5
2022-12-20T13:10:13.958Z,1.299
2022-12-20T13:11:13.755Z,1.600
2022-12-20T13:12:13.498Z,1.5
2022-12-20T13:13:14.360Z,1.100
2022-12-20T13:14:14.188Z,1.399
2022-12-20T13:16:13.571Z,1.299
2022-12-20T13:18:14.592Z,1.5
2022-12-20T13:19:13.725Z,1.399
2022-12-20T13:20:13.805Z,1.700
2022-12-20T13:21:13.887Z,1.399
2022-12-20T13:22:14.045Z,1.5
2022-12-20T13:23:14.600Z,1.299
2022-12-20T13:24:14.729Z,1.399
2022-12-20T13:27:13.781Z,1.299
2022-12-20T13:28:13.655Z,1.5
2022-12-20T13:29:13.859Z,1.100
2022-12-20T13:30:14.429Z,1.600
2022-12-20T13:31:13.717Z,1.799
2022-12-20T13:33:13.938Z,1.600
2022-12-20T13:34:13.689Z,1.799
2022-12-20T13:35:13.947Z,1.600
2022-12-20T13:36:14.040Z,1.5
2022-12-20T13:37:14.085Z,1.299
2022-12-20T13:38:13.915Z,1.399
2022-12-20T13:40:14.324Z,1.299
2022-12-20T13:41:13.952Z,1.399
2022-12-20T13:42:14.182Z,1.299
2022-12-20T13:43:14.032Z,1.5
2022-12-20T13:44:14.156Z,1.299
2022-12-20T13:46:14.252Z,1.399
2022-12-20T13:47:14.215Z,1.299
2022-12-20T13:48:13.971Z,1.399
2022-12-20T13:49:14.158Z,1.200
2022-12-20T13:50:14.469Z,1.5
2022-12-20T13:51:14.583Z,1.399
2022-12-20T13:52:14.437Z,1.600
2022-12-20T13:53:14.449Z,1.299
2022-12-20T13:54:14.182Z,1.5
2022-12-20T13:55:14.028Z,1.299
2022-12-20T13:56:14.480Z,1.700
2022-12-20T13:57:14.602Z,1.399
2022-12-20T13:58:15.016Z,1.299
2022-12-20T14:00:15.485Z,1.5
2022-12-20T14:01:14.350Z,1.299
2022-12-20T14:02:15.116Z,1.399
2022-12-20T14:03:14.993Z,1.5
2022-12-20T14:04:14.420Z,1.399
2022-12-20T14:06:14.435Z,1.600
2022-12-20T14:07:13.484Z,1.5
2022-12-20T14:08:14.449Z,1.399
2022-12-20T14:09:13.721Z,1.200
2022-12-20T14:10:14.464Z,1.399
2022-12-20T14:14:14.534Z,1.600
2022-12-20T14:16:13.752Z,1.799
2022-12-20T14:20:13.601Z,1.700
2022-12-20T14:21:13.623Z,1.600
2022-12-20T14:22:14.076Z,1.700
2022-12-20T14:24:14.351Z,1.5
2022-12-20T14:25:14.721Z,1.600
2022-12-20T14:26:14.412Z,1.5
2022-12-20T14:28:14.228Z,1.600
2022-12-20T14:29:13.686Z,1.299
2022-12-20T14:30:14.689Z,1.5
2022-12-20T14:31:13.791Z,1.399
2022-12-20T14:33:14.063Z,1.100
2022-12-20T14:34:13.556Z,1.299
2022-12-20T14:35:14.379Z,1.5
2022-12-20T14:37:14.376Z,1.100
2022-12-20T14:38:13.476Z,1.200
2022-12-20T14:39:19.360Z,1.399
2022-12-20T14:40:14.108Z,1.200
2022-12-20T14:41:13.623Z,1.299
2022-12-20T14:42:14.475Z,1.399
2022-12-20T14:45:18.676Z,1.5
2022-12-20T14:46:14.355Z,1.399
2022-12-20T14:47:19.220Z,1.299
2022-12-20T14:48:13.755Z,1.399
2022-12-20T14:50:14.761Z,1.200
2022-12-20T14:51:21.394Z,1.299
2022-12-20T14:52:14.061Z,1.600
2022-12-20T14:53:22.061Z,1.5
2022-12-20T14:54:32.359Z,1.399
2022-12-20T14:57:13.928Z,1.600
2022-12-20T14:58:14.049Z,1.200
2022-12-20T14:59:28.407Z,1.399
2022-12-20T15:02:14.305Z,1.299
2022-12-20T15:03:13.678Z,1.5
2022-12-20T15:05:13.813Z,1.299
2022-12-20T15:06:13.918Z,1.200
2022-12-20T15:07:13.617Z,1.5
2022-12-20T15:08:14.140Z,1.399
2022-12-20T15:09:28.345Z,1.200
2022-12-20T15:10:14.359Z,1.299
2022-12-20T15:11:14.680Z,1.399
2022-12-20T15:12:14.049Z,1.299
2022-12-20T15:13:14.079Z,1.5
2022-12-20T15:15:28.706Z,1.600
2022-12-20T15:18:13.980Z,1.5
2022-12-20T15:19:13.538Z,1.399
2022-12-20T15:20:13.640Z,1.799
2022-12-20T15:21:13.835Z,1.399
2022-12-20T15:22:14.483Z,1.5
2022-12-20T15:23:13.938Z,1.600
2022-12-20T15:25:14.195Z,1.5
2022-12-20T15:26:14.516Z,1.600
2022-12-20T15:27:14.786Z,1.700
2022-12-20T15:28:14.217Z,1.5
2022-12-20T15:29:14.849Z,1.600
2022-12-20T15:31:15.057Z,1.5
2022-12-20T15:34:13.689Z,1.799
2022-12-20T15:36:13.946Z,1.700
2022-12-20T15:37:17.994Z,1.399
2022-12-20T15:38:14.056Z,1.799
2022-12-20T15:39:14.747Z,1.5
2022-12-20T15:40:13.601Z,1.700
2022-12-20T15:42:13.952Z,1.600
2022-12-20T15:43:14.225Z,1.700
2022-12-20T15:44:14.188Z,1.600
2022-12-20T15:45:14.646Z,1.700
2022-12-20T15:46:13.840Z,2
2022-12-20T15:47:13.909Z,1.700
2022-12-20T15:48:14.201Z,1.600
2022-12-20T15:49:14.159Z,1.5
2022-12-20T15:50:14.433Z,1.799
2022-12-20T15:51:14.339Z,1.600
2022-12-20T15:52:14.178Z,1.799
2022-12-20T15:54:13.600Z,1.700
2022-12-20T15:55:13.592Z,1.899
2022-12-20T15:56:13.545Z,1.600
2022-12-20T15:58:14.130Z,1.700
2022-12-20T15:59:48.736Z,1.799
2022-12-20T16:01:13.831Z,1.700
2022-12-20T16:03:14.045Z,2
2022-12-20T16:04:14.114Z,1.899
2022-12-20T16:05:14.843Z,1.799
2022-12-20T16:07:14.312Z,1.899
2022-12-20T16:08:14.745Z,2
2022-12-20T16:09:14.024Z,1.899
2022-12-20T16:10:14.814Z,2
2022-12-20T16:11:14.218Z,1.799
2022-12-20T16:12:14.056Z,1.700
2022-12-20T16:13:19.294Z,1.799
2022-12-20T16:16:13.963Z,1.700
2022-12-20T16:17:14.461Z,1.799
2022-12-20T16:18:14.520Z,1.700
2022-12-20T16:19:13.852Z,1.899
2022-12-20T16:20:14.424Z,1.799
2022-12-20T16:21:14.550Z,2
2022-12-20T16:22:14.542Z,1.700
2022-12-20T16:23:14.315Z,1.799